Time;durP1;ratioP1;P1;durP2;ratioP2;P2;SDS_P1;SDS_P2;PMS_P1;PMS_P2;Temp;Humidity;BMP_temperature;BMP_pressure;BME280_temperature;BME280_humidity;BME280_pressure;Samples;Min_cycle;Max_cycle;Signal;HPM_P1;HPM_P2
2022/08/31 00:05:05;;;;;;;3.95;1.38;;;17.60;99.90;;;;;;5054014;28;40085;-78
2022/08/31 00:07:33;;;;;;;3.63;1.45;;;17.60;99.90;;;;;;5055283;28;38737;-78
2022/08/31 00:10:02;;;;;;;3.92;1.70;;;17.50;99.90;;;;;;5055022;28;38163;-77
2022/08/31 00:12:29;;;;;;;5.35;1.70;;;17.60;99.90;;;;;;5053397;28;48873;-77
2022/08/31 00:14:55;;;;;;;1.38;1.27;;;17.60;99.90;;;;;;5056520;28;37547;-78
2022/08/31 00:17:21;;;;;;;4.40;1.52;;;17.50;99.90;;;;;;5055126;28;38431;-77
2022/08/31 00:19:47;;;;;;;2.10;1.30;;;17.60;99.90;;;;;;5056206;28;37194;-78
2022/08/31 00:22:13;;;;;;;5.05;1.98;;;17.50;99.90;;;;;;5057583;28;37190;-78
2022/08/31 00:24:39;;;;;;;3.00;1.63;;;17.50;99.90;;;;;;5056315;28;37778;-78
2022/08/31 00:27:05;;;;;;;2.22;1.48;;;17.50;99.90;;;;;;5054380;28;38562;-78
2022/08/31 00:29:31;;;;;;;3.50;1.50;;;17.50;99.90;;;;;;5060555;28;38822;-78
2022/08/31 00:31:57;;;;;;;3.80;1.40;;;17.50;99.90;;;;;;5068627;28;37243;-78
2022/08/31 00:34:25;;;;;;;4.70;1.33;;;17.50;99.90;;;;;;5057172;28;39417;-77
2022/08/31 00:36:52;;;;;;;2.00;1.30;;;17.40;99.90;;;;;;5055794;28;38804;-77
2022/08/31 00:39:18;;;;;;;2.00;1.30;;;17.30;99.90;;;;;;5055535;28;37872;-77
2022/08/31 00:41:46;;;;;;;3.08;1.55;;;17.30;99.90;;;;;;5057552;28;37812;-77
2022/08/31 00:44:12;;;;;;;3.20;1.55;;;17.30;99.90;;;;;;5065011;28;38762;-77
2022/08/31 00:46:41;;;;;;;2.03;1.23;;;17.30;99.90;;;;;;5055018;28;39139;-77
2022/08/31 00:49:14;;;;;;;4.05;1.70;;;17.30;99.90;;;;;;5050392;28;39995;-77
2022/08/31 00:51:52;;;;;;;4.03;1.65;;;17.30;99.90;;;;;;5065992;28;38901;-78
2022/08/31 00:54:23;;;;;;;2.63;1.23;;;17.30;99.90;;;;;;5056274;28;41601;-77
2022/08/31 00:56:49;;;;;;;2.65;1.45;;;17.30;99.90;;;;;;5048673;28;37628;-78
2022/08/31 00:59:18;;;;;;;3.90;1.90;;;17.30;99.90;;;;;;5067467;28;39078;-77
2022/08/31 01:01:44;;;;;;;3.97;1.67;;;17.30;99.90;;;;;;5055511;28;36489;-77
2022/08/31 01:04:10;;;;;;;3.25;1.40;;;17.20;99.90;;;;;;5050730;28;38509;-77
2022/08/31 01:06:38;;;;;;;4.22;1.63;;;17.20;99.90;;;;;;5054179;28;38336;-77
2022/08/31 01:09:05;;;;;;;3.22;1.60;;;17.20;99.90;;;;;;5053319;28;37958;-76
2022/08/31 01:11:33;;;;;;;3.45;1.60;;;17.20;99.90;;;;;;5052930;28;37190;-77
2022/08/31 01:14:00;;;;;;;1.60;1.35;;;17.20;99.90;;;;;;5057463;28;39815;-78
2022/08/31 01:16:36;;;;;;;7.13;1.85;;;17.20;99.90;;;;;;5057294;28;40233;-77
2022/08/31 01:19:09;;;;;;;4.82;1.45;;;17.10;99.90;;;;;;5055051;28;36996;-77
2022/08/31 01:21:54;;;;;;;2.95;1.30;;;17.10;99.90;;;;;;5071833;28;36106;-77
2022/08/31 01:24:22;;;;;;;2.88;1.55;;;17.00;99.90;;;;;;5067122;28;38480;-79
2022/08/31 01:26:49;;;;;;;6.47;1.60;;;17.00;99.90;;;;;;5056079;28;37570;-79
2022/08/31 01:29:16;;;;;;;4.82;1.70;;;17.00;99.90;;;;;;5053449;28;37082;-79
2022/08/31 01:31:44;;;;;;;6.00;1.88;;;16.90;99.90;;;;;;5054801;28;36983;-78
2022/08/31 01:34:11;;;;;;;1.80;1.48;;;16.90;99.90;;;;;;5052224;28;38286;-78
2022/08/31 01:36:40;;;;;;;4.10;1.85;;;16.90;99.90;;;;;;5050348;28;39026;-79
2022/08/31 01:39:09;;;;;;;3.50;1.92;;;16.80;99.90;;;;;;5054741;28;36891;-78
2022/08/31 01:41:40;;;;;;;5.63;1.70;;;16.80;99.90;;;;;;5069165;28;37735;-79
2022/08/31 01:44:06;;;;;;;3.00;2.03;;;16.80;99.90;;;;;;5071411;28;40210;-78
2022/08/31 01:46:33;;;;;;;3.40;1.73;;;16.80;99.90;;;;;;5065081;28;38664;-78
2022/08/31 01:48:59;;;;;;;2.13;1.90;;;16.90;99.90;;;;;;5055547;28;37391;-78
2022/08/31 01:51:25;;;;;;;4.38;2.35;;;16.80;99.90;;;;;;5049922;28;37881;-79
2022/08/31 01:53:52;;;;;;;2.67;1.70;;;16.80;99.90;;;;;;5055769;28;38742;-78
2022/08/31 01:56:24;;;;;;;2.75;1.55;;;16.80;99.90;;;;;;5054022;28;39540;-78
2022/08/31 01:58:51;;;;;;;2.83;1.55;;;16.80;99.90;;;;;;5060117;28;40099;-78
2022/08/31 02:01:17;;;;;;;3.92;2.15;;;16.70;99.90;;;;;;5053156;28;38791;-78
2022/08/31 02:03:43;;;;;;;5.35;1.85;;;16.70;99.90;;;;;;5053541;28;37518;-78
2022/08/31 02:06:11;;;;;;;4.65;1.88;;;16.70;99.90;;;;;;5053825;28;38444;-78
2022/08/31 02:08:38;;;;;;;3.95;2.00;;;16.70;99.90;;;;;;5057158;28;38896;-78
2022/08/31 02:11:05;;;;;;;2.75;1.70;;;16.70;99.90;;;;;;5063057;28;37818;-78
2022/08/31 02:13:32;;;;;;;2.75;1.60;;;16.60;99.90;;;;;;5059542;28;39694;-78
2022/08/31 02:15:58;;;;;;;2.50;1.73;;;16.60;99.90;;;;;;5061461;28;38866;-78
2022/08/31 02:18:25;;;;;;;3.08;1.63;;;16.60;99.90;;;;;;5052263;28;38370;-78
2022/08/31 02:20:51;;;;;;;3.65;2.00;;;16.50;99.90;;;;;;5048445;28;37964;-78
2022/08/31 02:23:18;;;;;;;3.20;1.55;;;16.50;99.90;;;;;;5053768;28;38711;-77
2022/08/31 02:25:44;;;;;;;2.72;1.60;;;16.50;99.90;;;;;;5037735;28;37610;-78
2022/08/31 02:28:12;;;;;;;2.70;1.73;;;16.50;99.90;;;;;;5052980;28;38526;-78
2022/08/31 02:30:40;;;;;;;3.30;2.03;;;16.50;99.90;;;;;;5049210;28;36272;-78
2022/08/31 02:33:07;;;;;;;5.10;1.50;;;16.40;99.90;;;;;;5061362;28;39053;-78
2022/08/31 02:35:33;;;;;;;2.55;1.77;;;16.40;99.90;;;;;;5050245;28;37724;-77
2022/08/31 02:38:00;;;;;;;2.50;1.88;;;16.40;99.90;;;;;;5051202;28;37821;-78
2022/08/31 02:40:26;;;;;;;5.25;1.88;;;16.30;99.90;;;;;;5052582;28;35999;-78
2022/08/31 02:42:52;;;;;;;2.90;1.73;;;16.40;99.90;;;;;;5051686;28;40512;-77
2022/08/31 02:45:19;;;;;;;4.32;1.60;;;16.30;99.90;;;;;;5052672;28;37927;-78
2022/08/31 02:47:45;;;;;;;3.08;1.50;;;16.20;99.90;;;;;;5058083;28;39461;-78
2022/08/31 02:50:11;;;;;;;3.15;1.77;;;16.20;99.90;;;;;;5060083;28;36665;-78
2022/08/31 02:52:37;;;;;;;2.03;1.42;;;16.20;99.90;;;;;;5063635;28;39262;-78
2022/08/31 02:55:04;;;;;;;2.03;1.35;;;16.20;99.90;;;;;;5062410;28;39811;-78
2022/08/31 02:57:30;;;;;;;2.45;1.27;;;16.10;99.90;;;;;;5053517;28;37948;-78
2022/08/31 02:59:57;;;;;;;3.60;1.65;;;16.10;99.90;;;;;;5064046;28;37196;-77
2022/08/31 03:02:24;;;;;;;5.15;2.00;;;16.00;99.90;;;;;;5054574;28;39563;-78
2022/08/31 03:04:51;;;;;;;1.58;1.40;;;16.00;99.90;;;;;;5056242;28;38482;-79
2022/08/31 03:07:17;;;;;;;2.47;2.03;;;16.00;99.90;;;;;;5048778;28;39004;-78
2022/08/31 03:09:43;;;;;;;2.40;1.52;;;16.00;99.90;;;;;;5073423;28;37128;-78
2022/08/31 03:12:09;;;;;;;2.40;1.42;;;16.00;99.90;;;;;;5052090;28;38578;-78
2022/08/31 03:14:35;;;;;;;1.40;1.30;;;15.90;99.90;;;;;;5058053;28;38219;-79
2022/08/31 03:17:02;;;;;;;3.10;1.42;;;15.90;99.90;;;;;;5050607;28;38589;-77
2022/08/31 03:19:28;;;;;;;3.85;1.65;;;15.90;99.90;;;;;;5051268;28;37887;-78
2022/08/31 03:21:54;;;;;;;5.53;1.80;;;15.90;99.90;;;;;;5048285;28;39376;-78
2022/08/31 03:24:20;;;;;;;2.75;1.75;;;15.80;99.90;;;;;;5053050;28;39004;-78
2022/08/31 03:26:48;;;;;;;3.20;1.40;;;15.80;99.90;;;;;;5059979;28;38507;-78
2022/08/31 03:29:14;;;;;;;5.55;1.50;;;15.80;99.90;;;;;;5052902;28;37129;-78
2022/08/31 03:31:41;;;;;;;4.40;1.55;;;15.70;99.90;;;;;;5044624;28;39404;-78
2022/08/31 03:34:07;;;;;;;1.83;1.30;;;15.70;99.90;;;;;;5057980;28;38816;-78
2022/08/31 03:36:33;;;;;;;3.17;1.67;;;15.70;99.90;;;;;;5054043;28;37899;-78
2022/08/31 03:38:59;;;;;;;4.57;1.75;;;15.70;99.90;;;;;;5058798;28;38273;-78
2022/08/31 03:41:26;;;;;;;1.92;1.60;;;15.70;99.90;;;;;;5070573;28;37590;-78
2022/08/31 03:43:52;;;;;;;3.10;1.50;;;15.70;99.90;;;;;;5057762;28;39042;-79
2022/08/31 03:46:18;;;;;;;2.17;1.42;;;15.70;99.90;;;;;;5057118;28;39995;-78
2022/08/31 03:48:48;;;;;;;2.10;1.52;;;15.70;99.90;;;;;;5047975;28;37456;-78
2022/08/31 03:51:15;;;;;;;1.67;1.40;;;15.60;99.90;;;;;;5051538;28;38036;-77
2022/08/31 03:53:42;;;;;;;6.57;1.60;;;15.60;99.90;;;;;;5053526;28;37435;-78
2022/08/31 03:56:08;;;;;;;3.47;1.30;;;15.60;99.90;;;;;;5062857;28;37859;-79
2022/08/31 03:58:36;;;;;;;1.95;1.48;;;15.60;99.90;;;;;;5059296;28;37473;-78
2022/08/31 04:01:03;;;;;;;3.72;1.60;;;15.60;99.90;;;;;;5058713;28;39590;-77
2022/08/31 04:03:30;;;;;;;3.40;1.77;;;15.50;99.90;;;;;;5059863;28;38305;-78
2022/08/31 04:05:56;;;;;;;1.73;1.30;;;15.50;99.90;;;;;;5060515;28;38220;-77
2022/08/31 04:08:24;;;;;;;2.22;1.30;;;15.50;99.90;;;;;;5068712;28;36494;-78
2022/08/31 04:10:51;;;;;;;2.15;1.67;;;15.50;99.90;;;;;;5060541;28;38955;-78
2022/08/31 04:13:18;;;;;;;2.78;1.30;;;15.50;99.90;;;;;;5054989;28;38979;-78
2022/08/31 04:15:45;;;;;;;2.03;1.27;;;15.50;99.90;;;;;;5059504;28;38990;-78
2022/08/31 04:18:12;;;;;;;3.55;1.63;;;15.40;99.90;;;;;;5056389;28;38226;-78
2022/08/31 04:20:39;;;;;;;6.15;2.15;;;15.40;99.90;;;;;;5053352;28;40778;-78
2022/08/31 04:23:06;;;;;;;2.75;1.80;;;15.40;99.90;;;;;;5056874;28;38460;-79
2022/08/31 04:25:39;;;;;;;2.97;1.60;;;15.40;99.90;;;;;;5048511;28;39296;-78
2022/08/31 04:28:07;;;;;;;5.60;2.00;;;15.40;99.90;;;;;;5051085;28;37677;-78
2022/08/31 04:30:37;;;;;;;3.88;1.83;;;15.30;99.90;;;;;;5060480;28;39527;-80
2022/08/31 04:33:03;;;;;;;3.38;1.50;;;15.30;99.90;;;;;;5053220;28;40182;-77
2022/08/31 04:35:30;;;;;;;4.40;1.65;;;15.40;99.90;;;;;;5055232;28;38925;-78
2022/08/31 04:37:56;;;;;;;4.65;1.98;;;15.40;99.90;;;;;;5058888;28;38220;-77
2022/08/31 04:40:22;;;;;;;3.72;1.80;;;15.40;99.90;;;;;;5057075;28;39770;-78
2022/08/31 04:42:48;;;;;;;2.28;1.83;;;15.40;99.90;;;;;;5047874;28;38525;-78
2022/08/31 04:45:15;;;;;;;4.50;1.42;;;15.30;99.90;;;;;;5052931;28;38798;-77
2022/08/31 04:47:43;;;;;;;1.92;1.52;;;15.30;99.90;;;;;;5051727;28;36312;-76
2022/08/31 04:50:11;;;;;;;3.50;1.60;;;15.30;99.90;;;;;;5061201;28;39630;-76
2022/08/31 04:52:37;;;;;;;4.78;2.00;;;15.30;99.90;;;;;;5058663;28;37204;-76
2022/08/31 04:55:04;;;;;;;1.83;1.60;;;15.30;99.90;;;;;;5054559;28;38735;-76
2022/08/31 04:57:34;;;;;;;2.58;1.70;;;15.20;99.90;;;;;;5053848;28;39214;-76
2022/08/31 05:00:01;;;;;;;2.28;1.50;;;15.20;99.90;;;;;;5054938;28;37698;-76
2022/08/31 05:02:27;;;;;;;3.33;1.40;;;15.20;99.90;;;;;;5051646;28;38555;-76
2022/08/31 05:04:53;;;;;;;1.80;1.63;;;15.30;99.90;;;;;;5062332;28;37810;-75
2022/08/31 05:07:19;;;;;;;4.85;1.63;;;15.30;99.90;;;;;;5056894;28;36233;-76
2022/08/31 05:09:45;;;;;;;5.45;1.90;;;15.30;99.90;;;;;;5056886;28;37665;-75
2022/08/31 05:12:11;;;;;;;7.60;1.30;;;15.30;99.90;;;;;;5062571;28;38121;-76
2022/08/31 05:14:38;;;;;;;3.17;1.50;;;15.30;99.90;;;;;;5053623;28;38097;-75
2022/08/31 05:17:05;;;;;;;2.55;1.65;;;15.30;99.90;;;;;;5053673;28;37853;-76
2022/08/31 05:19:31;;;;;;;7.47;1.48;;;15.30;99.90;;;;;;5046288;28;38542;-76
2022/08/31 05:21:57;;;;;;;4.07;1.60;;;15.30;99.90;;;;;;5074256;28;38194;-76
2022/08/31 05:24:23;;;;;;;3.40;1.98;;;15.30;99.90;;;;;;5070968;28;38635;-76
2022/08/31 05:26:52;;;;;;;2.45;1.65;;;15.30;99.90;;;;;;5078714;28;37376;-77
2022/08/31 05:29:22;;;;;;;2.80;1.88;;;15.30;99.90;;;;;;5063015;28;40475;-76
2022/08/31 05:31:49;;;;;;;1.65;1.38;;;15.30;99.90;;;;;;5056550;28;38504;-76
2022/08/31 05:34:16;;;;;;;2.30;1.63;;;15.30;99.90;;;;;;5077678;28;36804;-76
2022/08/31 05:36:44;;;;;;;4.95;1.55;;;15.30;99.90;;;;;;5077417;28;37748;-76
2022/08/31 05:39:11;;;;;;;5.45;1.80;;;15.30;99.90;;;;;;5075526;28;39091;-76
2022/08/31 05:41:44;;;;;;;3.05;1.73;;;15.40;99.90;;;;;;5071568;28;37978;-76
2022/08/31 05:44:10;;;;;;;2.15;1.50;;;15.40;99.90;;;;;;5056834;28;37512;-75
2022/08/31 05:46:37;;;;;;;2.40;1.40;;;15.40;99.90;;;;;;5048728;28;38796;-75
2022/08/31 05:49:06;;;;;;;4.35;1.90;;;15.40;99.90;;;;;;5055385;28;37513;-75
2022/08/31 05:51:32;;;;;;;2.53;1.50;;;15.40;99.90;;;;;;5072044;28;39399;-76
2022/08/31 05:53:59;;;;;;;2.42;1.45;;;15.40;99.90;;;;;;5067854;28;40016;-75
2022/08/31 05:56:26;;;;;;;2.58;1.35;;;15.40;99.90;;;;;;5072487;28;38073;-77
2022/08/31 05:58:53;;;;;;;2.45;1.40;;;15.40;99.90;;;;;;5056592;28;37584;-76
2022/08/31 06:01:29;;;;;;;3.25;1.58;;;15.50;99.90;;;;;;5075717;28;38326;-75
2022/08/31 06:03:57;;;;;;;3.05;1.60;;;15.50;99.90;;;;;;5071345;28;38404;-75
2022/08/31 06:06:23;;;;;;;5.45;1.70;;;15.50;99.90;;;;;;5073065;28;37283;-75
2022/08/31 06:08:50;;;;;;;3.28;1.20;;;15.60;99.90;;;;;;5054870;28;37983;-75
2022/08/31 06:11:19;;;;;;;2.60;1.85;;;15.50;99.90;;;;;;5044217;28;37216;-75
2022/08/31 06:13:51;;;;;;;2.38;1.27;;;15.60;99.90;;;;;;5076968;28;38164;-76
2022/08/31 06:16:18;;;;;;;3.75;1.38;;;15.60;99.90;;;;;;5054528;28;36202;-75
2022/08/31 06:18:51;;;;;;;2.33;1.05;;;15.60;99.90;;;;;;5077118;28;38822;-78
2022/08/31 06:21:20;;;;;;;5.60;1.17;;;15.60;99.90;;;;;;5075358;28;39220;-76
2022/08/31 06:23:50;;;;;;;3.25;1.00;;;15.60;99.90;;;;;;5082831;28;20099;-76
2022/08/31 06:26:17;;;;;;;1.25;1.10;;;15.70;99.90;;;;;;5059562;28;38097;-76
2022/08/31 06:28:46;;;;;;;2.15;1.20;;;15.70;99.90;;;;;;5076509;28;39238;-76
2022/08/31 06:31:26;;;;;;;1.65;1.00;;;15.80;99.90;;;;;;5069843;28;39045;-75
2022/08/31 06:33:54;;;;;;;2.42;0.90;;;15.80;99.90;;;;;;5059452;28;39019;-76
2022/08/31 06:36:23;;;;;;;1.92;0.80;;;15.80;99.90;;;;;;5074977;28;36956;-76
2022/08/31 06:38:50;;;;;;;2.55;1.10;;;15.80;99.90;;;;;;5064784;28;39453;-77
2022/08/31 06:41:22;;;;;;;1.00;0.60;;;15.90;99.90;;;;;;5075272;28;37025;-77
2022/08/31 06:43:49;;;;;;;2.58;0.80;;;15.90;99.90;;;;;;5074804;28;37808;-76
2022/08/31 06:46:17;;;;;;;0.68;0.68;;;16.00;99.90;;;;;;5075630;28;38274;-77
2022/08/31 06:48:44;;;;;;;3.45;0.80;;;16.00;99.90;;;;;;5060791;28;37522;-77
2022/08/31 06:51:11;;;;;;;1.52;0.95;;;16.10;99.90;;;;;;5056917;28;38497;-76
2022/08/31 06:53:41;;;;;;;2.65;0.85;;;16.10;99.90;;;;;;5056300;28;37110;-76
2022/08/31 06:56:15;;;;;;;2.83;1.00;;;16.10;99.90;;;;;;5069774;28;36494;-76
2022/08/31 06:58:41;;;;;;;2.88;0.90;;;16.20;99.90;;;;;;5068963;28;38342;-76
2022/08/31 07:01:15;;;;;;;3.20;1.08;;;16.20;99.90;;;;;;5067282;28;38421;-76
2022/08/31 07:03:43;;;;;;;1.48;1.10;;;16.20;99.90;;;;;;5065838;28;36740;-76
2022/08/31 07:06:11;;;;;;;0.85;0.70;;;16.30;99.90;;;;;;5054776;28;38791;-76
2022/08/31 07:08:40;;;;;;;6.43;1.00;;;16.30;99.90;;;;;;5077571;28;38622;-75
2022/08/31 07:11:22;;;;;;;0.70;0.60;;;16.40;99.90;;;;;;5065378;28;37316;-76
2022/08/31 07:13:50;;;;;;;2.28;1.00;;;16.40;99.90;;;;;;5058716;28;38245;-77
2022/08/31 07:16:19;;;;;;;4.35;0.90;;;16.50;99.90;;;;;;5077331;28;37939;-77
2022/08/31 07:18:47;;;;;;;2.05;1.10;;;16.50;99.90;;;;;;5071001;28;38508;-76
2022/08/31 07:21:15;;;;;;;4.88;0.90;;;16.70;99.90;;;;;;5078253;28;38319;-76
2022/08/31 07:23:42;;;;;;;1.40;0.80;;;16.90;99.90;;;;;;5082702;28;37577;-76
2022/08/31 07:26:12;;;;;;;3.70;0.82;;;17.10;99.90;;;;;;5083089;28;37709;-76
2022/08/31 07:28:42;;;;;;;3.53;1.10;;;17.40;99.90;;;;;;5075600;28;38529;-76
2022/08/31 07:31:09;;;;;;;3.30;1.10;;;17.80;99.90;;;;;;5077296;28;38464;-76
2022/08/31 07:33:39;;;;;;;1.73;0.80;;;18.00;99.90;;;;;;5078057;28;38254;-73
2022/08/31 07:36:09;;;;;;;2.50;0.88;;;18.30;99.90;;;;;;5079664;28;38169;-74
2022/08/31 07:44:07;;;;;;;3.05;0.88;;;19.00;99.90;;;;;;5086455;28;39094;-74
2022/08/31 07:46:34;;;;;;;2.58;1.00;;;19.30;99.90;;;;;;5073421;28;37919;-75
2022/08/31 07:49:00;;;;;;;1.90;0.70;;;19.50;99.90;;;;;;5058217;28;38267;-74
2022/08/31 07:51:27;;;;;;;2.88;1.00;;;19.60;99.90;;;;;;5060425;28;46713;-75
2022/08/31 07:53:54;;;;;;;4.35;0.90;;;19.70;99.90;;;;;;5057420;28;37177;-75
2022/08/31 07:56:22;;;;;;;1.42;0.80;;;19.80;99.90;;;;;;5059005;28;37553;-74
2022/08/31 07:58:48;;;;;;;5.28;1.00;;;19.80;99.90;;;;;;5064865;28;39463;-75
2022/08/31 08:01:16;;;;;;;2.35;0.80;;;20.00;99.90;;;;;;5064906;28;38695;-74
2022/08/31 08:03:43;;;;;;;7.85;1.20;;;20.10;99.90;;;;;;5052439;28;38855;-75
2022/08/31 08:06:11;;;;;;;2.08;0.60;;;20.40;99.90;;;;;;5060099;28;37092;-75
2022/08/31 08:08:39;;;;;;;3.20;0.80;;;20.50;99.90;;;;;;5053410;28;38934;-75
2022/08/31 08:11:05;;;;;;;2.35;1.00;;;20.50;99.90;;;;;;5057558;28;38611;-74
2022/08/31 08:13:31;;;;;;;6.55;1.27;;;20.50;99.90;;;;;;5072096;28;36644;-75
2022/08/31 08:15:58;;;;;;;3.55;1.08;;;20.60;99.90;;;;;;5056366;28;37914;-74
2022/08/31 08:18:28;;;;;;;10.13;0.93;;;20.70;99.90;;;;;;5068843;28;39889;-75
2022/08/31 08:20:54;;;;;;;1.23;1.00;;;20.70;99.90;;;;;;5059789;28;39824;-74
2022/08/31 08:23:20;;;;;;;1.92;0.90;;;20.90;99.90;;;;;;5054714;28;38121;-75
2022/08/31 08:25:46;;;;;;;1.52;0.80;;;20.80;99.90;;;;;;5073808;28;37961;-75
2022/08/31 08:28:16;;;;;;;3.10;1.48;;;20.70;99.90;;;;;;5057345;28;38815;-75
2022/08/31 08:30:47;;;;;;;2.05;0.88;;;20.70;99.90;;;;;;5077681;28;38790;-75
2022/08/31 08:33:14;;;;;;;1.38;0.85;;;20.80;99.90;;;;;;5052363;28;37714;-74
2022/08/31 08:35:40;;;;;;;3.53;1.00;;;20.80;99.90;;;;;;5059902;28;37982;-77
2022/08/31 08:38:06;;;;;;;2.85;0.93;;;20.90;99.90;;;;;;5052718;28;39693;-75
2022/08/31 08:40:42;;;;;;;3.17;1.00;;;21.10;99.90;;;;;;5075788;28;38553;-75
2022/08/31 08:43:16;;;;;;;4.82;1.00;;;21.30;99.90;;;;;;5050517;28;40098;-75
2022/08/31 08:45:50;;;;;;;5.13;1.30;;;21.40;99.90;;;;;;5048948;28;37918;-75
2022/08/31 08:48:21;;;;;;;1.05;0.85;;;21.50;99.90;;;;;;5055856;28;38069;-76
2022/08/31 08:50:51;;;;;;;2.95;0.80;;;21.70;99.90;;;;;;5073065;28;39175;-76
2022/08/31 08:53:23;;;;;;;6.68;0.98;;;21.70;99.90;;;;;;5058081;28;37228;-75
2022/08/31 08:55:50;;;;;;;4.30;1.10;;;21.70;99.90;;;;;;5077134;28;37466;-75
2022/08/31 08:58:18;;;;;;;1.40;0.85;;;21.80;99.90;;;;;;5073958;28;39218;-75
2022/08/31 09:00:50;;;;;;;1.52;0.80;;;21.80;99.90;;;;;;5058335;28;39906;-76
2022/08/31 09:03:46;;;;;;;1.17;0.73;;;22.00;99.90;;;;;;5076792;28;37977;-76
2022/08/31 09:07:10;;;;;;;3.53;1.10;;;22.10;99.90;;;;;;5055910;28;35999;-76
2022/08/31 09:10:00;;;;;;;5.68;0.85;;;22.20;99.90;;;;;;4937348;28;47237;-75
2022/08/31 09:12:53;;;;;;;1.58;0.70;;;22.30;99.90;;;;;;4959590;28;38281;-76
2022/08/31 09:15:36;;;;;;;;;;;22.30;99.90;;;;;;5050247;28;37081;-76
2022/08/31 09:18:23;;;;;;;0.85;0.70;;;22.30;99.90;;;;;;5065997;28;36764;-83
2022/08/31 09:21:20;;;;;;;3.97;0.80;;;22.20;99.90;;;;;;5055987;28;37682;-76
2022/08/31 09:24:11;;;;;;;3.20;0.88;;;22.10;99.90;;;;;;5056304;28;47077;-75
2022/08/31 09:26:49;;;;;;;1.70;0.63;;;22.40;99.90;;;;;;5058428;28;46140;-76
2022/08/31 09:29:25;;;;;;;3.85;0.77;;;22.40;99.90;;;;;;5060519;28;36175;-76
2022/08/31 09:32:05;;;;;;;1.52;0.85;;;22.50;99.90;;;;;;5061851;28;39186;-76
2022/08/31 09:34:36;;;;;;;2.47;1.00;;;22.50;99.90;;;;;;5059560;28;48993;-76
2022/08/31 09:37:23;;;;;;;4.00;1.02;;;22.70;99.90;;;;;;5047307;28;38024;-78
2022/08/31 09:39:51;;;;;;;1.20;0.73;;;22.80;99.90;;;;;;5066363;28;36285;-77
2022/08/31 09:42:31;;;;;;;8.23;1.15;;;22.70;99.90;;;;;;5054082;28;39335;-76
2022/08/31 09:45:10;;;;;;;2.83;0.90;;;22.90;99.90;;;;;;5044050;28;38113;-77
2022/08/31 09:47:51;;;;;;;2.33;1.13;;;22.80;99.90;;;;;;5043025;28;48114;-77
2022/08/31 09:50:30;;;;;;;1.55;0.90;;;22.80;99.90;;;;;;5033534;28;35930;-77
2022/08/31 09:56:13;;;;;;;1.60;1.00;;;23.10;99.90;;;;;;5053590;28;49502;-76
2022/08/31 09:58:55;;;;;;;4.05;1.00;;;23.30;99.90;;;;;;5064645;28;47246;-76
2022/08/31 10:01:41;;;;;;;1.48;0.80;;;23.30;99.90;;;;;;5068005;28;36282;-77
2022/08/31 10:04:19;;;;;;;2.17;0.90;;;23.60;99.90;;;;;;5054498;28;39717;-76
2022/08/31 10:07:27;;;;;;;3.42;1.20;;;23.90;99.90;;;;;;5055086;28;37457;-77
2022/08/31 10:09:56;;;;;;;5.05;1.80;;;23.80;99.90;;;;;;5022289;28;49613;-76
2022/08/31 10:12:34;;;;;;;2.90;0.90;;;23.80;99.90;;;;;;5064181;28;37336;-77
2022/08/31 10:15:08;;;;;;;2.30;0.90;;;23.80;99.90;;;;;;5070124;28;39864;-77
2022/08/31 10:17:44;;;;;;;1.48;0.70;;;24.00;99.90;;;;;;5066132;28;48143;-76
2022/08/31 10:20:19;;;;;;;1.23;0.90;;;24.00;99.90;;;;;;5056267;28;37272;-76
2022/08/31 10:22:55;;;;;;;1.65;0.80;;;24.20;99.90;;;;;;5034852;28;36226;-76
2022/08/31 10:25:21;;;;;;;4.28;1.00;;;24.40;99.90;;;;;;5042167;28;38011;-76
2022/08/31 10:27:52;;;;;;;3.67;1.00;;;24.50;99.90;;;;;;5053586;28;39384;-77
2022/08/31 10:30:35;;;;;;;2.35;1.52;;;24.50;99.90;;;;;;5044932;28;37007;-76
2022/08/31 10:33:18;;;;;;;2.60;1.15;;;24.20;99.90;;;;;;5049995;28;37800;-76
2022/08/31 10:35:57;;;;;;;1.80;0.93;;;23.90;99.90;;;;;;5036730;28;38112;-77
2022/08/31 10:38:40;;;;;;;4.45;0.90;;;24.00;99.90;;;;;;5052637;28;38266;-76
2022/08/31 10:41:26;;;;;;;3.60;1.20;;;24.00;99.90;;;;;;5055260;28;38609;-77
2022/08/31 10:44:15;;;;;;;2.65;0.85;;;24.30;99.90;;;;;;5049725;28;37111;-75
2022/08/31 10:46:42;;;;;;;2.42;1.02;;;24.60;99.90;;;;;;5056494;28;48583;-75
2022/08/31 10:49:10;;;;;;;9.05;1.38;;;24.50;99.90;;;;;;5060135;28;37273;-77
2022/08/31 10:51:52;;;;;;;2.47;1.50;;;24.40;99.90;;;;;;5062148;28;36940;-76
2022/08/31 10:54:49;;;;;;;8.95;1.67;;;24.30;99.90;;;;;;5079229;28;38127;-77
2022/08/31 10:57:33;;;;;;;1.95;0.93;;;24.40;99.90;;;;;;5051908;28;40157;-77
2022/08/31 11:00:07;;;;;;;4.93;1.30;;;24.50;99.90;;;;;;5061763;28;39519;-77
2022/08/31 11:03:03;;;;;;;2.15;1.23;;;24.50;99.90;;;;;;5061431;28;47139;-77
2022/08/31 11:05:52;;;;;;;1.42;1.30;;;24.60;99.90;;;;;;5054269;28;49021;-75
2022/08/31 11:08:36;;;;;;;2.33;0.95;;;24.60;99.90;;;;;;5061651;28;39468;-75
2022/08/31 11:11:07;;;;;;;6.30;1.10;;;24.70;99.90;;;;;;5058424;28;38518;-76
2022/08/31 11:14:04;;;;;;;2.45;0.90;;;24.90;99.90;;;;;;5054979;28;37753;-75
2022/08/31 11:16:39;;;;;;;6.40;1.40;;;24.70;99.90;;;;;;5061152;28;47051;-75
2022/08/31 11:19:43;;;;;;;1.83;1.15;;;24.90;99.90;;;;;;5057650;28;38654;-76
2022/08/31 11:22:40;;;;;;;4.78;1.10;;;24.90;99.90;;;;;;5060516;28;40606;-76
2022/08/31 11:25:13;;;;;;;1.13;0.80;;;24.80;99.90;;;;;;5060196;28;37559;-76
2022/08/31 11:27:57;;;;;;;1.23;1.10;;;25.00;99.90;;;;;;5060299;28;38793;-75
2022/08/31 11:30:31;;;;;;;5.57;1.42;;;25.20;99.90;;;;;;5052660;28;39936;-76
2022/08/31 11:33:09;;;;;;;5.40;1.25;;;25.30;99.90;;;;;;5059139;28;39115;-76
2022/08/31 11:36:01;;;;;;;3.00;1.00;;;25.20;99.90;;;;;;5053721;28;47215;-76
2022/08/31 11:38:47;;;;;;;1.83;0.82;;;25.30;99.90;;;;;;5085729;28;48698;-75
2022/08/31 11:41:48;;;;;;;4.07;1.30;;;25.10;99.90;;;;;;5085506;28;39014;-76
2022/08/31 11:44:29;;;;;;;1.48;1.00;;;25.10;99.90;;;;;;5067509;28;37640;-75
2022/08/31 11:47:25;;;;;;;1.83;1.33;;;25.10;99.90;;;;;;5079676;28;37886;-76
2022/08/31 11:49:55;;;;;;;3.88;1.15;;;25.00;99.90;;;;;;5044382;28;45641;-76
2022/08/31 11:52:37;;;;;;;1.25;1.08;;;25.00;99.90;;;;;;5042898;28;37632;-75
2022/08/31 11:55:46;;;;;;;3.78;1.10;;;25.20;99.90;;;;;;5063624;28;39321;-76
2022/08/31 11:58:29;;;;;;;4.68;1.50;;;25.50;99.90;;;;;;5049297;28;46974;-76
2022/08/31 12:01:09;;;;;;;2.17;1.00;;;25.60;99.90;;;;;;5042238;28;36029;-75
2022/08/31 12:03:51;;;;;;;4.60;1.45;;;25.40;99.90;;;;;;5043318;28;47547;-76
2022/08/31 12:06:36;;;;;;;1.85;1.00;;;25.40;99.90;;;;;;5043873;28;38229;-75
2022/08/31 12:09:23;;;;;;;3.40;1.10;;;25.30;99.90;;;;;;5065169;28;38234;-77
2022/08/31 12:12:27;;;;;;;2.45;1.35;;;25.50;99.90;;;;;;5068658;28;37546;-76
2022/08/31 12:15:01;;;;;;;3.00;1.00;;;25.60;99.90;;;;;;5058404;28;48598;-76
2022/08/31 12:17:38;;;;;;;3.42;1.33;;;25.70;99.90;;;;;;5067839;28;38336;-75
2022/08/31 12:20:14;;;;;;;3.42;1.10;;;25.60;99.90;;;;;;5067200;28;37875;-75
2022/08/31 12:26:23;;;;;;;5.05;1.13;;;25.30;99.90;;;;;;5061934;28;48904;-76
2022/08/31 12:29:08;;;;;;;2.97;1.30;;;25.30;99.90;;;;;;5072710;28;47128;-75
2022/08/31 12:31:38;;;;;;;3.15;1.40;;;25.30;99.90;;;;;;5068024;28;47753;-76
2022/08/31 12:34:12;;;;;;;2.65;1.30;;;25.40;99.90;;;;;;5064353;28;37016;-76
2022/08/31 12:36:39;;;;;;;2.97;1.30;;;25.60;99.90;;;;;;5070727;28;38708;-77
2022/08/31 12:39:11;;;;;;;1.88;1.20;;;25.80;99.90;;;;;;5047741;28;37235;-76
2022/08/31 12:41:42;;;;;;;5.10;1.38;;;25.80;99.90;;;;;;5062796;28;38429;-77
2022/08/31 12:44:08;;;;;;;1.63;1.30;;;25.90;99.90;;;;;;5057800;28;38236;-74
2022/08/31 12:47:16;;;;;;;5.43;1.17;;;25.60;99.90;;;;;;5063416;28;39365;-76
2022/08/31 12:50:03;;;;;;;5.70;1.30;;;25.70;99.90;;;;;;5049453;28;49659;-76
2022/08/31 12:52:32;;;;;;;4.18;1.20;;;25.90;99.90;;;;;;5049339;28;47435;-76
2022/08/31 12:55:07;;;;;;;3.25;1.17;;;25.90;99.90;;;;;;5039474;28;38612;-75
2022/08/31 12:57:37;;;;;;;6.57;2.05;;;25.90;99.90;;;;;;5060617;28;47147;-74
2022/08/31 13:00:25;;;;;;;5.07;1.05;;;25.90;99.90;;;;;;5061990;28;37268;-74
2022/08/31 13:02:56;;;;;;;2.42;1.15;;;25.60;99.90;;;;;;5064982;28;47022;-76
2022/08/31 13:05:24;;;;;;;1.48;0.93;;;25.70;99.90;;;;;;5054151;28;37011;-76
2022/08/31 13:07:51;;;;;;;3.70;1.20;;;25.70;99.90;;;;;;5069267;28;38543;-75
2022/08/31 13:10:25;;;;;;;2.13;1.20;;;25.90;99.90;;;;;;5065182;28;38982;-75
2022/08/31 13:12:55;;;;;;;3.38;0.95;;;25.80;99.90;;;;;;5059565;28;38421;-75
2022/08/31 13:15:32;;;;;;;6.15;1.10;;;25.90;99.90;;;;;;5060826;28;36537;-75
2022/08/31 13:18:01;;;;;;;4.43;1.25;;;25.90;99.90;;;;;;5055885;28;37484;-75
2022/08/31 13:20:42;;;;;;;2.47;1.20;;;25.80;99.90;;;;;;5065864;28;47302;-76
2022/08/31 13:23:12;;;;;;;7.90;1.10;;;25.70;99.90;;;;;;5060535;28;38158;-74
2022/08/31 13:25:38;;;;;;;5.90;1.30;;;25.80;99.90;;;;;;5064297;28;38195;-75
2022/08/31 13:28:11;;;;;;;2.08;1.10;;;25.90;99.90;;;;;;5064814;28;39785;-75